Time;durP1;ratioP1;P1;durP2;ratioP2;P2;SDS_P1;SDS_P2;PMS_P1;PMS_P2;Temp;Humidity;BMP_temperature;BMP_pressure;BME280_temperature;BME280_humidity;BME280_pressure;Samples;Min_cycle;Max_cycle;Signal;HPM_P1;HPM_P2
2021/03/18 00:01:11;;;;;;;258.43;59.30;;;1.40;99.90;;;;;;4461752;28;659716;-60
2021/03/18 00:03:58;;;;;;;165.20;30.30;;;1.30;99.90;;;;;;4440138;28;659644;-61
2021/03/18 00:06:46;;;;;;;99.53;20.98;;;1.20;99.90;;;;;;4463216;28;661110;-61
2021/03/18 00:09:34;;;;;;;60.07;16.23;;;1.30;99.90;;;;;;4440519;28;658686;-60
2021/03/18 00:12:21;;;;;;;51.57;16.10;;;1.20;99.90;;;;;;4463346;28;659003;-60
2021/03/18 00:15:09;;;;;;;50.70;15.13;;;1.40;99.90;;;;;;4437237;28;659644;-61
2021/03/18 00:17:56;;;;;;;47.80;15.30;;;1.20;99.90;;;;;;4463041;28;659964;-61
2021/03/18 00:20:43;;;;;;;49.60;16.23;;;1.20;99.90;;;;;;4439312;28;658377;-60
2021/03/18 00:23:30;;;;;;;61.47;17.63;;;1.20;99.90;;;;;;4463580;28;659919;-60
2021/03/18 00:26:20;;;;;;;37.13;12.53;;;1.10;99.90;;;;;;4441904;28;659380;-62
2021/03/18 00:29:07;;;;;;;34.53;11.77;;;1.20;99.90;;;;;;4457552;28;660011;-62
2021/03/18 00:31:54;;;;;;;33.17;12.83;;;1.20;99.90;;;;;;4463168;28;659528;-60
2021/03/18 00:34:41;;;;;;;32.70;11.73;;;1.30;99.90;;;;;;4463663;28;659251;-60
2021/03/18 00:37:28;;;;;;;31.33;12.10;;;1.30;99.90;;;;;;4443524;28;658436;-61
2021/03/18 00:40:16;;;;;;;37.73;12.30;;;1.30;99.90;;;;;;4460824;28;659573;-60
2021/03/18 00:43:05;;;;;;;31.27;12.90;;;1.20;99.90;;;;;;4444193;28;658688;-60
2021/03/18 00:45:52;;;;;;;23.57;10.50;;;1.10;99.90;;;;;;4451447;28;658952;-62
2021/03/18 00:48:39;;;;;;;29.00;11.40;;;1.10;99.90;;;;;;4468523;28;658549;-60
2021/03/18 00:51:26;;;;;;;25.77;11.00;;;1.00;99.90;;;;;;4457964;28;658510;-61
2021/03/18 00:54:13;;;;;;;21.13;9.70;;;1.00;99.90;;;;;;4433954;28;659099;-60
2021/03/18 00:57:00;;;;;;;27.93;11.27;;;0.90;99.90;;;;;;4464291;28;658423;-61
2021/03/18 00:59:48;;;;;;;24.73;10.60;;;0.90;99.90;;;;;;4456366;28;658824;-61
2021/03/18 01:02:35;;;;;;;32.97;13.73;;;1.00;99.90;;;;;;4463508;28;659975;-60
2021/03/18 01:05:26;;;;;;;29.30;11.33;;;0.90;99.90;;;;;;4445948;28;658451;-62
2021/03/18 01:08:14;;;;;;;24.77;10.77;;;1.00;99.90;;;;;;4442471;28;658639;-60
2021/03/18 01:11:04;;;;;;;24.35;9.93;;;0.90;99.90;;;;;;4467143;28;659266;-60
2021/03/18 01:13:52;;;;;;;23.63;10.73;;;0.80;99.90;;;;;;4445778;28;658440;-60
2021/03/18 01:16:41;;;;;;;135.70;46.73;;;0.80;99.90;;;;;;4441349;28;660020;-61
2021/03/18 01:19:28;;;;;;;55.73;15.97;;;0.80;99.90;;;;;;4443206;28;659749;-60
2021/03/18 01:22:15;;;;;;;45.33;13.33;;;0.90;99.90;;;;;;4466565;28;660561;-60
2021/03/18 01:25:02;;;;;;;21.05;8.85;;;1.00;99.90;;;;;;4438237;28;658972;-62
2021/03/18 01:27:49;;;;;;;30.83;11.37;;;0.80;99.90;;;;;;4466465;28;659233;-60
2021/03/18 01:30:37;;;;;;;21.33;10.00;;;0.80;99.90;;;;;;4467131;28;659092;-61
2021/03/18 01:33:25;;;;;;;28.77;11.23;;;0.80;99.90;;;;;;4443616;28;660379;-60
2021/03/18 01:36:13;;;;;;;22.53;10.33;;;0.70;99.90;;;;;;4451302;28;658434;-61
2021/03/18 01:39:00;;;;;;;20.27;8.43;;;0.70;99.90;;;;;;4465979;28;660435;-62
2021/03/18 01:41:46;;;;;;;19.73;8.70;;;0.70;99.90;;;;;;4461143;28;658212;-61
2021/03/18 01:44:33;;;;;;;18.20;9.17;;;0.80;99.90;;;;;;4445858;28;658897;-60
2021/03/18 01:47:20;;;;;;;19.33;8.43;;;0.70;99.90;;;;;;4468159;28;658282;-61
2021/03/18 01:50:09;;;;;;;17.43;8.73;;;0.90;99.90;;;;;;4448649;28;657758;-61
2021/03/18 01:52:56;;;;;;;18.35;8.57;;;1.00;99.90;;;;;;4454400;28;657878;-60
2021/03/18 01:55:44;;;;;;;17.97;8.47;;;0.80;99.90;;;;;;4437587;28;658139;-61
2021/03/18 01:58:31;;;;;;;16.03;8.13;;;0.70;99.90;;;;;;4460696;28;658141;-61
2021/03/18 02:01:19;;;;;;;13.73;6.37;;;0.60;99.90;;;;;;4447753;28;658134;-60
2021/03/18 02:04:06;;;;;;;22.17;9.37;;;0.70;99.90;;;;;;4466754;28;657579;-60
2021/03/18 02:07:12;;;;;;;16.57;8.50;;;0.80;99.90;;;;;;4442456;28;657369;-61
2021/03/18 02:10:01;;;;;;;19.63;8.70;;;0.60;99.90;;;;;;4416879;28;658104;-61
2021/03/18 02:12:48;;;;;;;22.63;9.30;;;0.60;99.90;;;;;;4448599;28;657255;-61
2021/03/18 02:15:36;;;;;;;20.90;9.70;;;0.60;99.90;;;;;;4456446;28;658955;-60
2021/03/18 02:18:28;;;;;;;21.23;9.87;;;0.50;99.90;;;;;;4426346;28;657515;-61
2021/03/18 02:21:46;;;;;;;23.87;11.10;;;0.50;99.90;;;;;;4408794;28;660354;-61
2021/03/18 02:24:38;;;;;;;24.37;10.73;;;0.50;99.90;;;;;;4421700;28;659563;-61
2021/03/18 02:27:43;;;;;;;23.97;11.87;;;0.50;99.90;;;;;;4439640;28;659983;-60
2021/03/18 02:30:57;;;;;;;24.33;11.07;;;0.50;99.90;;;;;;4439696;28;659856;-61
2021/03/18 02:34:21;;;;;;;21.40;10.97;;;0.60;99.90;;;;;;4443243;28;659510;-61
2021/03/18 02:37:11;;;;;;;24.63;10.67;;;0.80;99.90;;;;;;4420312;28;660667;-62
2021/03/18 02:40:02;;;;;;;75.07;34.00;;;0.70;99.90;;;;;;4446764;28;658838;-61
2021/03/18 02:42:52;;;;;;;66.13;23.70;;;0.70;99.90;;;;;;4441535;28;658640;-61
2021/03/18 02:45:41;;;;;;;34.50;13.33;;;0.50;99.90;;;;;;4439543;28;659625;-61
2021/03/18 02:48:29;;;;;;;30.63;13.43;;;0.60;99.90;;;;;;4446259;28;658660;-62
2021/03/18 02:51:18;;;;;;;26.73;13.87;;;0.60;99.90;;;;;;4449023;28;658589;-61
2021/03/18 02:54:07;;;;;;;27.73;14.43;;;0.60;99.90;;;;;;4441861;28;659216;-61
2021/03/18 02:56:56;;;;;;;28.77;14.15;;;0.40;99.90;;;;;;4446838;28;659494;-60
2021/03/18 02:59:43;;;;;;;28.27;14.37;;;0.40;99.90;;;;;;4438809;28;658314;-61
2021/03/18 03:02:30;;;;;;;31.33;14.93;;;0.40;99.90;;;;;;4467777;28;659042;-61
2021/03/18 03:05:19;;;;;;;34.23;15.07;;;0.40;99.90;;;;;;4440587;28;658712;-61
2021/03/18 03:08:08;;;;;;;33.83;15.67;;;0.50;99.90;;;;;;4464079;28;659187;-62
2021/03/18 03:10:57;;;;;;;30.33;14.30;;;0.50;99.90;;;;;;4462052;28;659731;-60
2021/03/18 03:13:43;;;;;;;32.23;15.63;;;0.50;99.90;;;;;;4445288;28;660743;-61
2021/03/18 03:16:31;;;;;;;34.60;16.23;;;0.40;99.90;;;;;;4464670;28;658576;-60
2021/03/18 03:19:18;;;;;;;30.67;15.70;;;0.50;99.90;;;;;;4438141;28;658974;-61
2021/03/18 03:22:05;;;;;;;38.73;16.13;;;0.40;99.90;;;;;;4464957;28;661120;-60
2021/03/18 03:24:52;;;;;;;32.20;16.50;;;0.40;99.90;;;;;;4455391;28;658176;-62
2021/03/18 03:27:43;;;;;;;34.60;16.30;;;0.30;99.90;;;;;;4468659;28;658787;-60
2021/03/18 03:30:30;;;;;;;34.13;15.77;;;0.30;99.90;;;;;;4442647;28;660235;-61
2021/03/18 03:33:17;;;;;;;34.17;16.70;;;0.30;99.90;;;;;;4461132;28;659681;-62
2021/03/18 03:36:05;;;;;;;31.70;15.87;;;0.40;99.90;;;;;;4461474;28;659012;-60
2021/03/18 03:38:52;;;;;;;37.33;17.10;;;0.50;99.90;;;;;;4463366;28;658730;-62
2021/03/18 03:41:39;;;;;;;37.20;17.60;;;0.50;99.90;;;;;;4464644;28;658698;-61
2021/03/18 03:44:27;;;;;;;37.17;18.93;;;0.50;99.90;;;;;;4464183;28;659547;-60
2021/03/18 03:47:14;;;;;;;39.67;18.00;;;0.50;99.90;;;;;;4435563;28;660057;-61
2021/03/18 03:50:01;;;;;;;34.37;16.00;;;0.60;99.90;;;;;;4464456;28;659027;-62
2021/03/18 03:52:52;;;;;;;36.20;17.67;;;0.50;99.90;;;;;;4440282;28;658698;-61
2021/03/18 03:55:50;;;;;;;37.43;18.13;;;0.70;99.90;;;;;;4445055;28;659581;-61
2021/03/18 03:58:42;;;;;;;34.20;17.40;;;0.50;99.90;;;;;;4458193;28;658489;-61
2021/03/18 04:01:32;;;;;;;33.10;17.17;;;0.60;99.90;;;;;;4436989;28;660199;-60
2021/03/18 04:04:22;;;;;;;37.27;16.93;;;0.50;99.90;;;;;;4441364;28;660453;-61
2021/03/18 04:07:10;;;;;;;34.40;16.60;;;0.50;99.90;;;;;;4444793;28;659846;-61
2021/03/18 04:09:59;;;;;;;32.17;15.17;;;0.40;99.90;;;;;;4437751;28;658732;-61
2021/03/18 04:12:46;;;;;;;32.83;15.10;;;0.40;99.90;;;;;;4449360;28;658447;-61
2021/03/18 04:15:34;;;;;;;32.23;15.03;;;0.60;99.90;;;;;;4445051;28;658408;-61
2021/03/18 04:18:22;;;;;;;31.07;14.40;;;0.60;99.90;;;;;;4463504;28;658555;-60
2021/03/18 04:21:09;;;;;;;28.20;14.13;;;0.70;99.90;;;;;;4432786;28;660377;-61
2021/03/18 04:23:56;;;;;;;30.90;14.57;;;0.80;99.90;;;;;;4460900;28;658892;-60
2021/03/18 04:26:43;;;;;;;24.92;13.50;;;0.80;99.90;;;;;;4441141;28;660314;-60
2021/03/18 04:29:31;;;;;;;26.00;12.77;;;0.60;99.90;;;;;;4455389;28;660006;-60
2021/03/18 04:32:18;;;;;;;40.67;16.63;;;0.50;99.90;;;;;;4444521;28;659730;-60
2021/03/18 04:35:08;;;;;;;24.38;11.80;;;0.50;99.90;;;;;;4463342;28;661229;-60
2021/03/18 04:37:55;;;;;;;20.37;9.00;;;0.40;99.90;;;;;;4432406;28;660894;-60
2021/03/18 04:40:42;;;;;;;21.40;10.83;;;0.50;99.90;;;;;;4446170;28;658565;-61
2021/03/18 04:43:29;;;;;;;28.47;10.97;;;0.50;99.90;;;;;;4466170;28;659697;-60
2021/03/18 04:46:16;;;;;;;22.63;10.90;;;0.30;99.90;;;;;;4465357;28;659617;-62
2021/03/18 04:49:03;;;;;;;21.87;10.23;;;0.20;99.90;;;;;;4443540;28;659541;-61
2021/03/18 04:51:51;;;;;;;28.10;12.30;;;0.20;99.90;;;;;;4464335;28;660420;-61
2021/03/18 04:54:38;;;;;;;33.23;12.10;;;0.20;99.90;;;;;;4439962;28;660092;-61
2021/03/18 04:57:25;;;;;;;24.05;11.63;;;0.20;99.90;;;;;;4457684;28;661290;-60
2021/03/18 05:00:13;;;;;;;16.38;7.90;;;0.10;99.90;;;;;;4445380;28;659816;-62
2021/03/18 05:03:01;;;;;;;22.67;11.83;;;0.30;99.90;;;;;;4463808;28;660512;-60
2021/03/18 05:05:50;;;;;;;21.30;10.03;;;0.30;99.90;;;;;;4444459;28;659618;-60
2021/03/18 05:08:39;;;;;;;19.87;10.87;;;0.30;99.90;;;;;;4458200;28;659738;-61
2021/03/18 05:11:26;;;;;;;22.80;12.43;;;0.30;99.90;;;;;;4464523;28;659981;-61
2021/03/18 05:14:12;;;;;;;23.60;11.20;;;0.10;99.90;;;;;;4441638;28;659880;-60
2021/03/18 05:16:59;;;;;;;23.07;10.90;;;0.00;99.90;;;;;;4465205;28;661472;-61
2021/03/18 05:19:46;;;;;;;23.97;11.53;;;0.10;99.90;;;;;;4457540;28;660933;-60
2021/03/18 05:22:35;;;;;;;23.23;11.80;;;0.10;99.90;;;;;;4443798;28;659736;-60
2021/03/18 05:25:25;;;;;;;25.40;11.40;;;0.10;99.90;;;;;;4461066;28;660755;-61
2021/03/18 05:28:12;;;;;;;18.87;8.90;;;0.00;99.90;;;;;;4463121;28;659932;-61
2021/03/18 05:30:59;;;;;;;26.23;10.40;;;0.00;99.90;;;;;;4469684;28;660200;-61
2021/03/18 05:33:46;;;;;;;19.63;8.97;;;-0.10;99.90;;;;;;4465205;28;659451;-61
2021/03/18 05:36:33;;;;;;;20.90;10.20;;;-0.20;99.90;;;;;;4446199;28;660187;-61
2021/03/18 05:39:20;;;;;;;26.17;11.07;;;0.00;99.90;;;;;;4456700;28;660496;-61
2021/03/18 05:42:08;;;;;;;19.63;9.33;;;-0.10;99.90;;;;;;4447259;28;659674;-62
2021/03/18 05:44:55;;;;;;;23.03;10.97;;;0.00;99.90;;;;;;4465564;28;660710;-60
2021/03/18 05:47:42;;;;;;;23.10;9.20;;;0.10;99.90;;;;;;4449082;28;659701;-62
2021/03/18 05:50:29;;;;;;;20.83;10.40;;;0.10;99.90;;;;;;4469757;28;659065;-61
2021/03/18 05:53:17;;;;;;;23.17;10.50;;;0.10;99.90;;;;;;4463497;28;659251;-60
2021/03/18 05:56:04;;;;;;;21.97;10.17;;;0.20;99.90;;;;;;4445040;28;659726;-61
2021/03/18 05:58:52;;;;;;;29.60;11.60;;;0.20;99.90;;;;;;4465000;28;660525;-60
2021/03/18 06:01:40;;;;;;;21.87;10.27;;;0.10;99.90;;;;;;4441151;28;661630;-61
2021/03/18 06:04:27;;;;;;;24.60;10.80;;;0.10;99.90;;;;;;4449549;28;660034;-61
2021/03/18 06:07:14;;;;;;;26.30;10.47;;;0.10;99.90;;;;;;4461943;28;660363;-61
2021/03/18 06:10:01;;;;;;;22.60;7.73;;;0.10;99.90;;;;;;4464587;28;661393;-61
2021/03/18 06:12:48;;;;;;;18.00;8.27;;;0.20;99.90;;;;;;4431801;28;659273;-60
2021/03/18 06:15:36;;;;;;;17.53;9.33;;;0.30;99.90;;;;;;4460511;28;660070;-61
2021/03/18 06:18:23;;;;;;;19.23;7.63;;;0.40;99.90;;;;;;4446669;28;658337;-59
2021/03/18 06:21:11;;;;;;;16.63;8.07;;;0.30;99.90;;;;;;4455083;28;659900;-60
2021/03/18 06:24:02;;;;;;;15.30;7.27;;;0.30;99.90;;;;;;4435212;28;658617;-60
2021/03/18 06:26:48;;;;;;;21.23;9.03;;;0.30;99.90;;;;;;4447600;28;659372;-60
2021/03/18 06:29:36;;;;;;;25.47;12.23;;;0.40;99.90;;;;;;4467013;28;659152;-60
2021/03/18 06:32:24;;;;;;;18.20;8.60;;;0.50;99.90;;;;;;4439256;28;659429;-60
2021/03/18 06:35:12;;;;;;;15.90;7.03;;;0.60;99.90;;;;;;4462524;28;659927;-61
2021/03/18 06:37:59;;;;;;;17.63;6.97;;;0.70;99.90;;;;;;4441219;28;660324;-61
2021/03/18 06:40:46;;;;;;;16.07;7.73;;;0.60;99.90;;;;;;4464749;28;660224;-61
2021/03/18 06:43:40;;;;;;;14.05;7.03;;;0.60;99.90;;;;;;4445918;28;658446;-60
2021/03/18 06:46:27;;;;;;;15.27;7.80;;;0.80;99.90;;;;;;4444554;28;659512;-62
2021/03/18 06:49:15;;;;;;;15.57;6.87;;;0.80;99.90;;;;;;4466109;28;658451;-61
2021/03/18 06:52:04;;;;;;;19.03;8.73;;;0.90;99.90;;;;;;4446593;28;659262;-57
2021/03/18 06:54:51;;;;;;;17.63;6.83;;;1.00;99.90;;;;;;4460999;28;659557;-54
2021/03/18 06:57:39;;;;;;;14.70;6.37;;;0.90;99.90;;;;;;4445377;28;659558;-57
2021/03/18 07:00:34;;;;;;;11.67;5.50;;;0.90;99.90;;;;;;4464352;28;658827;-55
2021/03/18 07:03:26;;;;;;;12.83;5.77;;;0.90;99.90;;;;;;4436200;28;658862;-57
2021/03/18 07:06:25;;;;;;;9.40;4.77;;;0.90;99.90;;;;;;4422670;28;658885;-55
2021/03/18 07:09:13;;;;;;;10.50;5.13;;;0.90;99.90;;;;;;4424569;28;657632;-56
2021/03/18 07:12:01;;;;;;;11.90;5.43;;;0.90;99.90;;;;;;4462318;28;659443;-57
2021/03/18 07:14:48;;;;;;;10.13;5.33;;;1.10;99.90;;;;;;4445476;28;658647;-56
2021/03/18 07:17:36;;;;;;;8.25;3.38;;;1.10;99.90;;;;;;4463307;28;659597;-56
2021/03/18 07:20:23;;;;;;;16.07;6.13;;;1.30;99.90;;;;;;4438805;28;657560;-54
2021/03/18 07:23:14;;;;;;;12.57;6.60;;;1.40;99.90;;;;;;4456528;28;660325;-57
2021/03/18 07:26:02;;;;;;;14.60;6.25;;;1.60;99.90;;;;;;4432889;28;659444;-53
2021/03/18 07:28:50;;;;;;;9.87;3.97;;;1.40;99.90;;;;;;4445402;28;658817;-57
2021/03/18 07:31:37;;;;;;;10.50;6.00;;;1.30;99.90;;;;;;4447646;28;658470;-58
2021/03/18 07:34:25;;;;;;;11.13;5.20;;;1.20;99.90;;;;;;4468560;28;659028;-55
2021/03/18 07:37:13;;;;;;;18.03;6.17;;;1.40;99.90;;;;;;4447786;28;658755;-57
2021/03/18 07:40:02;;;;;;;16.40;7.47;;;1.40;99.90;;;;;;4464702;28;660693;-54
2021/03/18 07:42:49;;;;;;;15.30;6.63;;;1.50;99.90;;;;;;4442074;28;659304;-55
2021/03/18 07:45:36;;;;;;;17.83;6.97;;;1.50;99.90;;;;;;4465802;28;658586;-55
2021/03/18 07:48:23;;;;;;;13.80;6.17;;;1.60;99.90;;;;;;4440875;28;658657;-55
2021/03/18 07:51:10;;;;;;;13.30;6.70;;;1.70;99.90;;;;;;4460258;28;659614;-57
2021/03/18 07:53:58;;;;;;;5.80;2.30;;;2.00;99.90;;;;;;4440196;28;659799;-56
2021/03/18 07:56:49;;;;;;;11.33;5.47;;;2.20;99.90;;;;;;4448925;28;660084;-58
2021/03/18 07:59:36;;;;;;;15.23;5.57;;;2.10;99.90;;;;;;4441309;28;660158;-57
2021/03/18 08:02:24;;;;;;;11.13;5.70;;;2.30;99.90;;;;;;4439011;28;659185;-53
2021/03/18 08:05:11;;;;;;;15.17;6.77;;;2.60;99.90;;;;;;4464572;28;659246;-52
2021/03/18 08:07:58;;;;;;;15.93;5.93;;;3.00;99.90;;;;;;4440807;28;659609;-55
2021/03/18 08:10:45;;;;;;;22.30;6.63;;;3.30;99.90;;;;;;4463805;28;661137;-57
2021/03/18 08:13:34;;;;;;;10.37;4.53;;;3.50;99.90;;;;;;4439380;28;658724;-58
2021/03/18 08:16:30;;;;;;;29.87;9.10;;;3.60;99.90;;;;;;4458051;28;659494;-56
2021/03/18 08:19:18;;;;;;;7.53;3.57;;;3.80;99.90;;;;;;4428773;28;659346;-57
2021/03/18 08:22:05;;;;;;;11.77;5.05;;;4.00;99.90;;;;;;4459970;28;659310;-51
2021/03/18 08:24:52;;;;;;;9.87;4.90;;;4.10;99.90;;;;;;4436811;28;658961;-57
2021/03/18 08:27:39;;;;;;;5.80;3.03;;;4.20;99.90;;;;;;4459470;28;658124;-55
2021/03/18 08:30:27;;;;;;;8.60;3.20;;;4.40;99.90;;;;;;4457968;28;659390;-52
2021/03/18 08:33:33;;;;;;;8.43;3.57;;;4.60;99.90;;;;;;4446548;28;658450;-55
2021/03/18 08:36:22;;;;;;;8.45;3.20;;;5.00;99.90;;;;;;4442713;28;658342;-54
2021/03/18 08:39:10;;;;;;;8.77;3.63;;;5.40;99.90;;;;;;4434133;28;657919;-50
2021/03/18 08:41:57;;;;;;;3.07;1.67;;;5.90;99.90;;;;;;4445642;28;658099;-57
2021/03/18 08:44:44;;;;;;;2.77;1.80;;;6.30;99.90;;;;;;4466191;28;657547;-56
2021/03/18 08:47:42;;;;;;;3.43;1.53;;;6.60;99.90;;;;;;4465136;28;657763;-56
2021/03/18 08:50:58;;;;;;;3.10;1.37;;;6.30;98.30;;;;;;4439234;28;658035;-53
2021/03/18 08:53:45;;;;;;;2.97;1.47;;;5.50;96.40;;;;;;4439192;28;658121;-54
2021/03/18 08:56:42;;;;;;;3.67;1.70;;;5.20;96.70;;;;;;4449151;28;657635;-57
2021/03/18 08:59:29;;;;;;;2.90;1.60;;;4.70;97.00;;;;;;4410676;28;659142;-57
2021/03/18 09:02:18;;;;;;;6.67;2.63;;;4.60;97.30;;;;;;4460242;28;658122;-53
2021/03/18 09:05:09;;;;;;;3.97;2.13;;;4.70;98.80;;;;;;4437211;28;659419;-56
2021/03/18 09:07:58;;;;;;;3.23;2.00;;;5.40;99.90;;;;;;4439631;28;659045;-54
2021/03/18 09:10:45;;;;;;;4.70;1.60;;;6.10;98.80;;;;;;4427869;28;658019;-56
2021/03/18 09:13:32;;;;;;;4.27;2.23;;;6.90;95.80;;;;;;4447006;28;658289;-56
2021/03/18 09:16:21;;;;;;;5.70;2.10;;;6.60;94.30;;;;;;4460348;28;658946;-57
2021/03/18 09:19:09;;;;;;;5.67;2.07;;;6.30;91.90;;;;;;4436282;28;658504;-56
2021/03/18 09:21:57;;;;;;;4.30;2.13;;;5.70;91.10;;;;;;4463596;28;656972;-55
2021/03/18 09:24:45;;;;;;;2.90;1.60;;;5.20;92.50;;;;;;4439760;28;658085;-53
2021/03/18 09:27:36;;;;;;;6.20;2.20;;;4.70;93.30;;;;;;4428960;28;657097;-56
2021/03/18 09:30:26;;;;;;;3.47;1.80;;;4.50;93.20;;;;;;4439716;28;659041;-55
2021/03/18 09:33:18;;;;;;;4.03;1.93;;;4.40;94.40;;;;;;4449481;28;657553;-55
2021/03/18 09:36:20;;;;;;;6.77;2.00;;;4.30;94.90;;;;;;4446309;28;658656;-53
2021/03/18 09:39:09;;;;;;;4.27;2.13;;;4.40;94.50;;;;;;4421715;28;657675;-55
2021/03/18 09:41:58;;;;;;;6.27;2.10;;;4.50;96.10;;;;;;4466427;28;658603;-53
2021/03/18 09:44:45;;;;;;;5.63;2.17;;;4.50;94.60;;;;;;4449101;28;658585;-55
2021/03/18 09:47:32;;;;;;;6.40;1.90;;;4.60;94.20;;;;;;4464558;28;658453;-57
2021/03/18 09:50:22;;;;;;;3.40;1.50;;;4.60;93.60;;;;;;4462280;28;659327;-54
2021/03/18 09:53:11;;;;;;;3.93;1.20;;;4.80;93.40;;;;;;4443609;28;658633;-56
2021/03/18 09:56:03;;;;;;;4.23;1.63;;;4.90;91.20;;;;;;4436861;28;658409;-53
2021/03/18 09:58:50;;;;;;;3.30;1.40;;;5.00;92.20;;;;;;4435978;28;659197;-54
2021/03/18 10:01:38;;;;;;;3.53;1.33;;;5.10;90.80;;;;;;4448174;28;657355;-57
2021/03/18 10:04:25;;;;;;;4.73;1.97;;;5.60;92.10;;;;;;4467758;28;659696;-56
2021/03/18 10:07:13;;;;;;;7.87;1.70;;;5.90;91.00;;;;;;4468335;28;658738;-56
2021/03/18 10:10:00;;;;;;;3.03;1.50;;;6.20;86.40;;;;;;4461923;28;659409;-56
2021/03/18 10:12:49;;;;;;;3.33;1.17;;;6.30;84.50;;;;;;4462350;28;657477;-57
2021/03/18 10:15:36;;;;;;;4.17;1.60;;;6.30;81.70;;;;;;4462026;28;658777;-54
2021/03/18 10:18:23;;;;;;;4.10;1.37;;;6.30;85.40;;;;;;4448699;28;657707;-54
2021/03/18 10:21:10;;;;;;;1.83;1.10;;;6.10;81.70;;;;;;4463523;28;658412;-56
2021/03/18 10:23:57;;;;;;;5.30;1.67;;;6.00;79.70;;;;;;4445819;28;657703;-55
2021/03/18 10:26:44;;;;;;;5.65;1.70;;;5.90;76.00;;;;;;4471136;28;657601;-53
2021/03/18 10:29:34;;;;;;;3.93;2.23;;;6.00;79.70;;;;;;4460663;28;658613;-51
2021/03/18 10:32:21;;;;;;;4.43;1.40;;;6.30;80.70;;;;;;4442082;28;658018;-54
2021/03/18 10:35:09;;;;;;;3.10;1.73;;;6.20;76.40;;;;;;4434238;28;657774;-56
2021/03/18 10:37:56;;;;;;;4.40;2.00;;;5.50;78.10;;;;;;4467844;28;658927;-56
2021/03/18 10:40:43;;;;;;;8.43;3.87;;;5.40;82.80;;;;;;4446006;28;657475;-53
2021/03/18 10:43:31;;;;;;;22.13;7.77;;;5.30;86.60;;;;;;4464796;28;659576;-55
2021/03/18 10:46:26;;;;;;;8.43;3.17;;;5.20;87.60;;;;;;4445971;28;660190;-55
2021/03/18 10:49:15;;;;;;;18.60;5.60;;;5.00;86.20;;;;;;4414783;28;658958;-56
2021/03/18 10:52:02;;;;;;;8.00;2.47;;;5.40;91.70;;;;;;4453170;28;659486;-57
2021/03/18 10:54:54;;;;;;;5.70;2.53;;;6.00;88.50;;;;;;4471407;28;658098;-54
2021/03/18 10:57:41;;;;;;;6.43;2.63;;;6.40;82.30;;;;;;4443130;28;658051;-54
2021/03/18 11:00:29;;;;;;;4.27;1.90;;;6.70;79.90;;;;;;4447399;28;657639;-55
2021/03/18 11:03:18;;;;;;;5.47;2.57;;;6.80;72.90;;;;;;4465913;28;658177;-55
2021/03/18 11:06:14;;;;;;;7.33;2.63;;;7.40;73.20;;;;;;4440916;28;659388;-58
2021/03/18 11:09:01;;;;;;;7.17;3.20;;;8.10;74.70;;;;;;4429417;28;658045;-54
2021/03/18 11:11:54;;;;;;;9.13;3.80;;;8.30;70.80;;;;;;4444885;28;657888;-58
2021/03/18 11:14:56;;;;;;;11.90;4.20;;;7.30;75.90;;;;;;4443119;28;658063;-52
2021/03/18 11:17:43;;;;;;;12.27;5.60;;;6.80;76.00;;;;;;4406147;28;659731;-57
2021/03/18 11:20:35;;;;;;;8.43;3.47;;;6.30;79.90;;;;;;4446893;28;660809;-54
2021/03/18 11:23:27;;;;;;;10.37;3.30;;;5.70;77.70;;;;;;4449022;28;657474;-57
2021/03/18 11:26:14;;;;;;;7.17;3.40;;;5.70;77.50;;;;;;4425472;28;660757;-53
2021/03/18 11:29:06;;;;;;;8.80;3.60;;;6.40;81.10;;;;;;4448725;28;658902;-58
2021/03/18 11:31:54;;;;;;;10.05;3.83;;;7.00;79.60;;;;;;4394797;28;659456;-55
2021/03/18 11:34:41;;;;;;;6.90;2.90;;;7.50;72.60;;;;;;4446957;28;659415;-55
2021/03/18 11:37:29;;;;;;;5.03;2.90;;;7.60;74.50;;;;;;4431095;28;657453;-54
2021/03/18 11:40:16;;;;;;;8.30;3.72;;;7.20;73.00;;;;;;4443578;28;658848;-57
2021/03/18 11:43:04;;;;;;;7.57;3.43;;;6.80;74.10;;;;;;4430160;28;658169;-56
2021/03/18 11:45:51;;;;;;;7.47;2.40;;;6.80;76.50;;;;;;4449176;28;658884;-58
2021/03/18 11:48:38;;;;;;;5.77;3.00;;;7.30;73.20;;;;;;4412932;28;657576;-55
2021/03/18 11:51:26;;;;;;;5.95;2.83;;;7.60;74.50;;;;;;4426295;28;659023;-58
2021/03/18 11:54:14;;;;;;;8.07;3.63;;;7.50;72.60;;;;;;4427076;28;657488;-55
2021/03/18 11:57:01;;;;;;;9.77;3.80;;;6.90;75.20;;;;;;4449005;28;659438;-52
2021/03/18 11:59:48;;;;;;;11.27;4.07;;;6.90;79.50;;;;;;4426934;28;658900;-57
2021/03/18 12:02:35;;;;;;;8.32;3.95;;;7.40;83.00;;;;;;4446558;28;660115;-55
2021/03/18 12:05:22;;;;;;;9.07;4.20;;;8.40;79.80;;;;;;4430220;28;657547;-58
2021/03/18 12:08:10;;;;;;;8.90;4.07;;;9.10;76.00;;;;;;4430897;28;658534;-57
2021/03/18 12:10:58;;;;;;;8.67;4.00;;;9.50;73.30;;;;;;4416895;28;657786;-58
2021/03/18 12:13:45;;;;;;;7.67;4.13;;;10.30;71.80;;;;;;4438916;28;659451;-57
2021/03/18 12:16:32;;;;;;;7.73;4.00;;;10.90;64.60;;;;;;4426048;28;659267;-58
2021/03/18 12:19:19;;;;;;;9.40;4.43;;;10.10;65.80;;;;;;4450451;28;658693;-57
2021/03/18 12:22:06;;;;;;;10.13;3.80;;;9.10;68.70;;;;;;4453362;28;659525;-53
2021/03/18 12:24:53;;;;;;;9.33;2.93;;;8.10;71.00;;;;;;4428405;28;659875;-53
2021/03/18 12:27:41;;;;;;;7.67;3.47;;;7.00;71.60;;;;;;4450325;28;658530;-53
2021/03/18 12:30:28;;;;;;;7.47;4.13;;;6.00;76.70;;;;;;4427692;28;657830;-53
2021/03/18 12:33:16;;;;;;;7.27;4.20;;;5.40;79.90;;;;;;4444959;28;658774;-55
2021/03/18 12:36:04;;;;;;;8.27;4.20;;;4.90;80.90;;;;;;4415249;28;659123;-55
2021/03/18 12:38:51;;;;;;;9.37;4.80;;;4.90;82.00;;;;;;4444119;28;657767;-56
2021/03/18 12:41:38;;;;;;;12.33;4.23;;;4.90;83.20;;;;;;4431824;28;658683;-55
2021/03/18 12:44:26;;;;;;;13.97;5.27;;;5.20;84.30;;;;;;4451557;28;660502;-55
2021/03/18 12:47:14;;;;;;;10.73;5.10;;;5.30;83.50;;;;;;4435205;28;658632;-55
2021/03/18 12:50:01;;;;;;;56.33;18.73;;;5.40;84.50;;;;;;4460144;28;658651;-56
2021/03/18 12:52:48;;;;;;;36.03;15.20;;;5.70;83.00;;;;;;4442438;28;659641;-55
2021/03/18 12:55:35;;;;;;;19.03;6.23;;;6.90;83.70;;;;;;4449561;28;660909;-55
2021/03/18 12:58:23;;;;;;;31.07;10.03;;;7.90;75.40;;;;;;4439677;28;659711;-58
2021/03/18 13:01:11;;;;;;;45.57;10.57;;;8.30;71.90;;;;;;4444796;28;661462;-57
2021/03/18 13:03:58;;;;;;;26.10;5.70;;;8.30;69.20;;;;;;4432226;28;659817;-57
2021/03/18 13:06:45;;;;;;;92.03;20.53;;;8.70;70.80;;;;;;4472298;28;660425;-54
2021/03/18 13:09:32;;;;;;;167.37;43.27;;;8.80;67.90;;;;;;4461885;28;660791;-57
2021/03/18 13:12:19;;;;;;;250.40;43.60;;;8.30;67.50;;;;;;4454627;28;661678;-55
2021/03/18 13:15:07;;;;;;;9.47;4.60;;;7.60;65.60;;;;;;4463582;28;660984;-56
2021/03/18 13:17:55;;;;;;;13.60;4.60;;;6.50;65.70;;;;;;4445368;28;659544;-56
2021/03/18 13:20:42;;;;;;;58.80;11.30;;;6.40;67.50;;;;;;4442343;28;658653;-56
2021/03/18 13:23:29;;;;;;;6.50;3.80;;;6.50;67.50;;;;;;4456038;28;659634;-54
2021/03/18 13:26:16;;;;;;;38.83;7.10;;;7.00;63.70;;;;;;4467987;28;657708;-57
2021/03/18 13:29:03;;;;;;;28.00;6.93;;;7.70;62.90;;;;;;4448812;28;658702;-57
2021/03/18 13:31:51;;;;;;;13.33;4.63;;;8.80;60.00;;;;;;4467407;28;659260;-57
2021/03/18 13:34:39;;;;;;;61.50;15.37;;;9.70;59.50;;;;;;4436375;28;658405;-55
2021/03/18 13:37:26;;;;;;;8.23;3.50;;;11.10;58.40;;;;;;4464607;28;660723;-56
2021/03/18 13:40:13;;;;;;;7.90;3.53;;;12.00;49.90;;;;;;4437625;28;658531;-58
2021/03/18 13:43:00;;;;;;;5.27;3.30;;;11.90;49.50;;;;;;4471199;28;659816;-54
2021/03/18 13:45:47;;;;;;;5.83;3.50;;;12.20;46.90;;;;;;4443612;28;659047;-58
2021/03/18 13:48:34;;;;;;;5.87;3.53;;;12.50;44.20;;;;;;4456388;28;660476;-55
2021/03/18 13:51:22;;;;;;;46.50;9.47;;;13.10;45.50;;;;;;4450395;28;658216;-58
2021/03/18 13:54:12;;;;;;;8.25;3.42;;;12.80;43.60;;;;;;4428959;28;660941;-56
2021/03/18 13:56:59;;;;;;;10.63;3.83;;;12.70;42.50;;;;;;4428172;28;661112;-56
2021/03/18 13:59:46;;;;;;;12.23;4.87;;;13.10;44.40;;;;;;4447250;28;661162;-57
2021/03/18 14:02:33;;;;;;;7.67;3.10;;;12.60;42.60;;;;;;4429634;28;661242;-53
2021/03/18 14:05:20;;;;;;;6.20;3.13;;;12.80;42.00;;;;;;4465702;28;659954;-56
2021/03/18 14:08:08;;;;;;;9.23;3.30;;;12.70;41.00;;;;;;4442269;28;658776;-58
2021/03/18 14:10:55;;;;;;;4.53;2.10;;;13.70;38.30;;;;;;4449371;28;660361;-54
2021/03/18 14:13:42;;;;;;;6.50;3.47;;;13.60;38.20;;;;;;4431189;28;659457;-58
2021/03/18 14:16:29;;;;;;;11.07;3.90;;;14.20;38.60;;;;;;4461662;28;658803;-58
2021/03/18 14:19:16;;;;;;;5.13;3.07;;;14.50;37.60;;;;;;4466097;28;659308;-56
2021/03/18 14:22:03;;;;;;;11.23;3.80;;;12.60;36.00;;;;;;4441995;28;659020;-53
2021/03/18 14:24:52;;;;;;;8.43;3.47;;;11.00;39.90;;;;;;4462603;28;660836;-53